sensor_id;sensor_type;location;lat;lon;timestamp;pressure;altitude;pressure_sealevel;temperature;humidity
46682;BME280;34101;53.430;-2.224;2023-02-23T00:02:01;52451.44;;;-148.94;100.00
46682;BME280;34101;53.430;-2.224;2023-02-23T00:04:28;52261.52;;;-148.94;100.00
46682;BME280;34101;53.430;-2.224;2023-02-23T00:06:56;52155.36;;;-148.94;100.00
46682;BME280;34101;53.430;-2.224;2023-02-23T00:09:23;51992.61;;;-148.94;100.00
46682;BME280;34101;53.430;-2.224;2023-02-23T00:11:53;51877.36;;;-148.94;100.00
46682;BME280;34101;53.430;-2.224;2023-02-23T00:14:20;51750.60;;;-148.94;100.00
46682;BME280;34101;53.430;-2.224;2023-02-23T00:16:48;51627.93;;;-148.94;100.00
46682;BME280;34101;53.430;-2.224;2023-02-23T00:19:15;51503.35;;;-148.94;100.00
46682;BME280;34101;53.430;-2.224;2023-02-23T00:21:42;51658.15;;;-148.94;100.00
46682;BME280;34101;53.430;-2.224;2023-02-23T00:24:11;51833.57;;;-148.94;100.00
46682;BME280;34101;53.430;-2.224;2023-02-23T00:26:40;51863.28;;;-148.94;100.00
46682;BME280;34101;53.430;-2.224;2023-02-23T00:29:10;51651.49;;;-148.94;100.00
46682;BME280;34101;53.430;-2.224;2023-02-23T00:31:38;51635.74;;;-148.94;100.00
46682;BME280;34101;53.430;-2.224;2023-02-23T00:34:05;51537.92;;;-148.94;100.00
46682;BME280;34101;53.430;-2.224;2023-02-23T00:36:34;51604.12;;;-148.94;100.00
46682;BME280;34101;53.430;-2.224;2023-02-23T00:39:04;51444.58;;;-148.94;100.00
46682;BME280;34101;53.430;-2.224;2023-02-23T00:41:32;51484.78;;;-148.94;100.00
46682;BME280;34101;53.430;-2.224;2023-02-23T00:43:59;51425.50;;;-148.94;100.00
46682;BME280;34101;53.430;-2.224;2023-02-23T00:46:28;51493.11;;;-148.94;100.00
46682;BME280;34101;53.430;-2.224;2023-02-23T00:48:56;51432.29;;;-148.94;100.00
46682;BME280;34101;53.430;-2.224;2023-02-23T00:51:26;51795.15;;;-148.94;100.00
46682;BME280;34101;53.430;-2.224;2023-02-23T00:53:54;51687.34;;;-148.94;100.00
46682;BME280;34101;53.430;-2.224;2023-02-23T00:56:22;51580.68;;;-148.94;100.00
46682;BME280;34101;53.430;-2.224;2023-02-23T00:58:49;51708.08;;;-148.94;100.00
46682;BME280;34101;53.430;-2.224;2023-02-23T01:01:17;51892.21;;;-148.94;100.00
46682;BME280;34101;53.430;-2.224;2023-02-23T01:03:44;52052.02;;;-148.94;100.00
46682;BME280;34101;53.430;-2.224;2023-02-23T01:06:14;51911.93;;;-148.94;100.00
46682;BME280;34101;53.430;-2.224;2023-02-23T01:08:43;51911.42;;;-148.94;100.00
46682;BME280;34101;53.430;-2.224;2023-02-23T01:11:12;51701.17;;;-148.94;100.00
46682;BME280;34101;53.430;-2.224;2023-02-23T01:13:42;51584.53;;;-148.94;100.00
46682;BME280;34101;53.430;-2.224;2023-02-23T01:16:12;51559.05;;;-148.94;100.00
46682;BME280;34101;53.430;-2.224;2023-02-23T01:18:41;51592.98;;;-148.94;100.00
46682;BME280;34101;53.430;-2.224;2023-02-23T01:21:15;51513.85;;;-148.94;100.00
46682;BME280;34101;53.430;-2.224;2023-02-23T01:23:43;51613.08;;;-148.94;100.00
46682;BME280;34101;53.430;-2.224;2023-02-23T01:26:15;51516.54;;;-148.94;100.00
46682;BME280;34101;53.430;-2.224;2023-02-23T01:28:42;51481.33;;;-148.94;100.00
46682;BME280;34101;53.430;-2.224;2023-02-23T01:31:09;51607.70;;;-148.94;100.00
46682;BME280;34101;53.430;-2.224;2023-02-23T01:33:37;51609.75;;;-148.94;100.00
46682;BME280;34101;53.430;-2.224;2023-02-23T01:36:05;51516.66;;;-148.94;100.00
46682;BME280;34101;53.430;-2.224;2023-02-23T01:38:32;51341.64;;;-148.94;100.00
46682;BME280;34101;53.430;-2.224;2023-02-23T01:40:59;51311.30;;;-148.94;100.00
46682;BME280;34101;53.430;-2.224;2023-02-23T01:43:26;51243.32;;;-148.94;100.00
46682;BME280;34101;53.430;-2.224;2023-02-23T01:45:55;51272.25;;;-148.94;100.00
46682;BME280;34101;53.430;-2.224;2023-02-23T01:48:24;51516.28;;;-148.94;100.00
46682;BME280;34101;53.430;-2.224;2023-02-23T01:50:56;51444.84;;;-148.94;100.00
46682;BME280;34101;53.430;-2.224;2023-02-23T01:53:26;51337.29;;;-148.94;100.00
46682;BME280;34101;53.430;-2.224;2023-02-23T01:55:58;51344.72;;;-148.94;100.00
46682;BME280;34101;53.430;-2.224;2023-02-23T01:58:27;51354.32;;;-148.94;100.00
46682;BME280;34101;53.430;-2.224;2023-02-23T02:00:57;51248.44;;;-148.94;100.00
46682;BME280;34101;53.430;-2.224;2023-02-23T02:03:29;51381.20;;;-148.94;100.00
46682;BME280;34101;53.430;-2.224;2023-02-23T02:05:59;51553.41;;;-148.94;100.00
46682;BME280;34101;53.430;-2.224;2023-02-23T02:08:29;51776.20;;;-148.94;100.00
46682;BME280;34101;53.430;-2.224;2023-02-23T02:10:58;52003.75;;;-148.94;100.00
46682;BME280;34101;53.430;-2.224;2023-02-23T02:13:28;52252.82;;;-148.94;100.00
46682;BME280;34101;53.430;-2.224;2023-02-23T02:16:41;52314.80;;;-148.94;100.00
46682;BME280;34101;53.430;-2.224;2023-02-23T02:19:33;52348.10;;;-148.94;100.00
46682;BME280;34101;53.430;-2.224;2023-02-23T02:24:45;52294.05;;;-148.94;100.00
46682;BME280;34101;53.430;-2.224;2023-02-23T02:27:26;52421.86;;;-148.94;100.00
46682;BME280;34101;53.430;-2.224;2023-02-23T02:30:16;52283.42;;;-148.94;100.00
46682;BME280;34101;53.430;-2.224;2023-02-23T02:33:06;52622.55;;;-148.94;100.00
46682;BME280;34101;53.430;-2.224;2023-02-23T02:35:54;52571.44;;;-148.94;100.00
46682;BME280;34101;53.430;-2.224;2023-02-23T02:38:37;52530.85;;;-148.94;100.00
46682;BME280;34101;53.430;-2.224;2023-02-23T02:41:16;52765.22;;;-148.94;100.00
46682;BME280;34101;53.430;-2.224;2023-02-23T02:43:49;53025.87;;;-148.94;100.00
46682;BME280;34101;53.430;-2.224;2023-02-23T02:46:23;53113.61;;;-148.94;100.00
46682;BME280;34101;53.430;-2.224;2023-02-23T02:48:56;53248.36;;;-148.94;100.00
46682;BME280;34101;53.430;-2.224;2023-02-23T02:51:31;53392.21;;;-148.94;100.00
46682;BME280;34101;53.430;-2.224;2023-02-23T02:54:04;53497.25;;;-148.94;100.00
46682;BME280;34101;53.430;-2.224;2023-02-23T02:56:36;53419.24;;;-148.94;100.00
46682;BME280;34101;53.430;-2.224;2023-02-23T02:59:06;53416.55;;;-148.94;100.00
46682;BME280;34101;53.430;-2.224;2023-02-23T03:01:35;53363.90;;;-148.94;100.00
46682;BME280;34101;53.430;-2.224;2023-02-23T03:04:18;53239.90;;;-148.94;100.00
46682;BME280;34101;53.430;-2.224;2023-02-23T03:06:51;53247.08;;;-148.94;100.00
46682;BME280;34101;53.430;-2.224;2023-02-23T03:09:27;53336.61;;;-148.94;100.00
46682;BME280;34101;53.430;-2.224;2023-02-23T03:12:06;53559.63;;;-148.94;100.00
46682;BME280;34101;53.430;-2.224;2023-02-23T03:14:38;53637.91;;;-148.94;100.00
46682;BME280;34101;53.430;-2.224;2023-02-23T03:17:15;53853.64;;;-148.94;100.00
46682;BME280;34101;53.430;-2.224;2023-02-23T03:19:55;54085.15;;;-148.94;100.00
46682;BME280;34101;53.430;-2.224;2023-02-23T03:22:27;54060.16;;;-148.94;100.00
46682;BME280;34101;53.430;-2.224;2023-02-23T03:24:59;54244.40;;;-148.94;100.00
46682;BME280;34101;53.430;-2.224;2023-02-23T03:27:40;54350.36;;;-148.94;100.00
46682;BME280;34101;53.430;-2.224;2023-02-23T03:30:12;54443.00;;;-148.94;100.00
46682;BME280;34101;53.430;-2.224;2023-02-23T03:32:47;54480.55;;;-148.94;100.00
46682;BME280;34101;53.430;-2.224;2023-02-23T03:35:22;54638.28;;;-148.94;100.00
46682;BME280;34101;53.430;-2.224;2023-02-23T03:37:56;54450.56;;;-148.94;100.00
46682;BME280;34101;53.430;-2.224;2023-02-23T03:40:31;54599.71;;;-148.94;100.00
46682;BME280;34101;53.430;-2.224;2023-02-23T03:43:01;54478.75;;;-148.94;100.00
46682;BME280;34101;53.430;-2.224;2023-02-23T03:45:32;54664.93;;;-148.94;100.00
46682;BME280;34101;53.430;-2.224;2023-02-23T03:48:01;54863.17;;;-148.94;100.00
46682;BME280;34101;53.430;-2.224;2023-02-23T03:50:34;54930.44;;;-148.94;100.00
46682;BME280;34101;53.430;-2.224;2023-02-23T03:53:05;55135.61;;;-148.94;100.00
46682;BME280;34101;53.430;-2.224;2023-02-23T03:55:38;55225.71;;;-148.94;100.00
46682;BME280;34101;53.430;-2.224;2023-02-23T03:58:12;55397.06;;;-148.94;100.00
46682;BME280;34101;53.430;-2.224;2023-02-23T04:00:45;55561.49;;;-148.94;100.00
46682;BME280;34101;53.430;-2.224;2023-02-23T04:03:15;55662.49;;;-148.94;100.00
46682;BME280;34101;53.430;-2.224;2023-02-23T04:05:44;55581.87;;;-148.94;100.00
46682;BME280;34101;53.430;-2.224;2023-02-23T04:08:14;55740.67;;;-148.94;100.00
46682;BME280;34101;53.430;-2.224;2023-02-23T04:10:49;56006.90;;;-148.94;100.00
46682;BME280;34101;53.430;-2.224;2023-02-23T04:13:20;56023.95;;;-148.94;100.00
46682;BME280;34101;53.430;-2.224;2023-02-23T04:15:52;55880.00;;;-148.94;100.00
46682;BME280;34101;53.430;-2.224;2023-02-23T04:18:23;55777.72;;;-148.94;100.00
46682;BME280;34101;53.430;-2.224;2023-02-23T04:20:51;55882.44;;;-148.94;100.00
46682;BME280;34101;53.430;-2.224;2023-02-23T04:23:18;55828.22;;;-148.94;100.00
46682;BME280;34101;53.430;-2.224;2023-02-23T04:25:45;55714.53;;;-148.94;100.00
46682;BME280;34101;53.430;-2.224;2023-02-23T04:28:13;55635.57;;;-148.94;100.00
46682;BME280;34101;53.430;-2.224;2023-02-23T04:30:40;55685.82;;;-148.94;100.00
46682;BME280;34101;53.430;-2.224;2023-02-23T04:33:08;55917.69;;;-148.94;100.00
46682;BME280;34101;53.430;-2.224;2023-02-23T04:35:37;55990.36;;;-148.94;100.00
46682;BME280;34101;53.430;-2.224;2023-02-23T04:38:04;55953.06;;;-148.94;100.00
46682;BME280;34101;53.430;-2.224;2023-02-23T04:40:32;55958.45;;;-148.94;100.00
46682;BME280;34101;53.430;-2.224;2023-02-23T04:42:58;55983.95;;;-148.94;100.00
46682;BME280;34101;53.430;-2.224;2023-02-23T04:45:26;55977.93;;;-148.94;100.00
46682;BME280;34101;53.430;-2.224;2023-02-23T04:47:53;56033.18;;;-148.94;100.00
46682;BME280;34101;53.430;-2.224;2023-02-23T04:50:21;56052.28;;;-148.94;100.00
46682;BME280;34101;53.430;-2.224;2023-02-23T04:52:48;56027.54;;;-148.94;100.00
46682;BME280;34101;53.430;-2.224;2023-02-23T04:55:18;56021.26;;;-148.94;100.00
46682;BME280;34101;53.430;-2.224;2023-02-23T04:57:46;56078.81;;;-148.94;100.00
46682;BME280;34101;53.430;-2.224;2023-02-23T05:00:14;56215.97;;;-148.94;100.00
46682;BME280;34101;53.430;-2.224;2023-02-23T05:02:41;56354.42;;;-148.94;100.00
46682;BME280;34101;53.430;-2.224;2023-02-23T05:05:09;56308.39;;;-148.94;100.00
46682;BME280;34101;53.430;-2.224;2023-02-23T05:07:37;56363.00;;;-148.94;100.00
46682;BME280;34101;53.430;-2.224;2023-02-23T05:10:05;56423.26;;;-148.94;100.00
46682;BME280;34101;53.430;-2.224;2023-02-23T05:12:33;56539.92;;;-148.94;100.00
46682;BME280;34101;53.430;-2.224;2023-02-23T05:15:00;56667.99;;;-148.94;100.00
46682;BME280;34101;53.430;-2.224;2023-02-23T05:17:28;56535.94;;;-148.94;100.00
46682;BME280;34101;53.430;-2.224;2023-02-23T05:19:55;56370.18;;;-148.94;100.00
46682;BME280;34101;53.430;-2.224;2023-02-23T05:22:23;56483.89;;;-148.94;100.00
46682;BME280;34101;53.430;-2.224;2023-02-23T05:24:50;56447.61;;;-148.94;100.00
46682;BME280;34101;53.430;-2.224;2023-02-23T05:27:18;56355.44;;;-148.94;100.00
46682;BME280;34101;53.430;-2.224;2023-02-23T05:29:45;56644.66;;;-148.94;100.00
46682;BME280;34101;53.430;-2.224;2023-02-23T05:32:13;56672.09;;;-148.94;100.00
46682;BME280;34101;53.430;-2.224;2023-02-23T05:34:40;56809.66;;;-148.94;100.00
46682;BME280;34101;53.430;-2.224;2023-02-23T05:37:08;56894.53;;;-148.94;100.00
46682;BME280;34101;53.430;-2.224;2023-02-23T05:39:35;56782.35;;;-148.94;100.00
46682;BME280;34101;53.430;-2.224;2023-02-23T05:42:03;56930.69;;;-148.94;100.00
46682;BME280;34101;53.430;-2.224;2023-02-23T05:44:30;56743.50;;;-148.94;100.00
46682;BME280;34101;53.430;-2.224;2023-02-23T05:46:57;56817.48;;;-148.94;100.00
46682;BME280;34101;53.430;-2.224;2023-02-23T05:49:25;57171.99;;;-148.94;100.00
46682;BME280;34101;53.430;-2.224;2023-02-23T05:51:52;57330.60;;;-148.94;100.00
46682;BME280;34101;53.430;-2.224;2023-02-23T05:54:20;57365.99;;;-148.94;100.00
46682;BME280;34101;53.430;-2.224;2023-02-23T05:56:47;57478.57;;;-148.94;100.00
46682;BME280;34101;53.430;-2.224;2023-02-23T05:59:15;57501.91;;;-148.94;100.00
46682;BME280;34101;53.430;-2.224;2023-02-23T06:01:42;57435.75;;;-148.94;100.00
46682;BME280;34101;53.430;-2.224;2023-02-23T06:04:10;57506.27;;;-148.94;100.00
46682;BME280;34101;53.430;-2.224;2023-02-23T06:06:37;57492.42;;;-148.94;100.00
46682;BME280;34101;53.430;-2.224;2023-02-23T06:09:04;57663.23;;;-148.94;100.00
46682;BME280;34101;53.430;-2.224;2023-02-23T06:11:32;57665.28;;;-148.94;100.00
46682;BME280;34101;53.430;-2.224;2023-02-23T06:14:00;57707.09;;;-148.94;100.00
46682;BME280;34101;53.430;-2.224;2023-02-23T06:16:27;57735.55;;;-148.94;100.00
46682;BME280;34101;53.430;-2.224;2023-02-23T06:18:54;57740.81;;;-148.94;100.00
46682;BME280;34101;53.430;-2.224;2023-02-23T06:21:22;57598.09;;;-148.94;100.00
46682;BME280;34101;53.430;-2.224;2023-02-23T06:23:49;57659.25;;;-148.94;100.00
46682;BME280;34101;53.430;-2.224;2023-02-23T06:26:17;57626.94;;;-148.94;100.00
46682;BME280;34101;53.430;-2.224;2023-02-23T06:28:44;57690.16;;;-148.94;100.00
46682;BME280;34101;53.430;-2.224;2023-02-23T06:31:12;57967.16;;;-148.94;100.00
46682;BME280;34101;53.430;-2.224;2023-02-23T06:33:39;58000.12;;;-148.94;100.00
46682;BME280;34101;53.430;-2.224;2023-02-23T06:36:07;57900.98;;;-148.94;100.00
46682;BME280;34101;53.430;-2.224;2023-02-23T06:38:34;57900.60;;;-148.94;100.00
46682;BME280;34101;53.430;-2.224;2023-02-23T06:41:06;58193.77;;;-148.94;100.00
46682;BME280;34101;53.430;-2.224;2023-02-23T06:43:34;58100.15;;;-148.94;100.00
46682;BME280;34101;53.430;-2.224;2023-02-23T06:46:02;58259.82;;;-148.94;100.00
46682;BME280;34101;53.430;-2.224;2023-02-23T06:48:29;58180.56;;;-148.94;100.00
46682;BME280;34101;53.430;-2.224;2023-02-23T06:50:57;58311.26;;;-148.94;100.00
46682;BME280;34101;53.430;-2.224;2023-02-23T06:53:25;58392.44;;;-148.94;100.00
46682;BME280;34101;53.430;-2.224;2023-02-23T06:55:52;58420.02;;;-148.94;100.00
46682;BME280;34101;53.430;-2.224;2023-02-23T06:58:20;58251.74;;;-148.94;100.00
46682;BME280;34101;53.430;-2.224;2023-02-23T07:00:48;58237.51;;;-148.94;100.00
46682;BME280;34101;53.430;-2.224;2023-02-23T07:03:14;58335.62;;;-148.94;100.00
46682;BME280;34101;53.430;-2.224;2023-02-23T07:05:42;58392.06;;;-148.94;100.00
46682;BME280;34101;53.430;-2.224;2023-02-23T07:08:10;58285.48;;;-148.94;100.00
46682;BME280;34101;53.430;-2.224;2023-02-23T07:10:37;58459.39;;;-148.94;100.00
46682;BME280;34101;53.430;-2.224;2023-02-23T07:13:04;58516.86;;;-148.94;100.00
46682;BME280;34101;53.430;-2.224;2023-02-23T07:15:34;58658.20;;;-148.94;100.00
46682;BME280;34101;53.430;-2.224;2023-02-23T07:18:01;58815.34;;;-148.94;100.00
46682;BME280;34101;53.430;-2.224;2023-02-23T07:20:28;58892.68;;;-148.94;100.00
46682;BME280;34101;53.430;-2.224;2023-02-23T07:22:56;58889.48;;;-148.94;100.00
46682;BME280;34101;53.430;-2.224;2023-02-23T07:25:24;58940.79;;;-148.94;100.00
46682;BME280;34101;53.430;-2.224;2023-02-23T07:27:51;59039.31;;;-148.94;100.00
46682;BME280;34101;53.430;-2.224;2023-02-23T07:30:19;59190.81;;;-148.94;100.00
46682;BME280;34101;53.430;-2.224;2023-02-23T07:32:47;59107.42;;;-148.94;100.00
46682;BME280;34101;53.430;-2.224;2023-02-23T07:35:14;59011.85;;;-148.94;100.00
46682;BME280;34101;53.430;-2.224;2023-02-23T07:37:41;59015.32;;;-148.94;100.00
46682;BME280;34101;53.430;-2.224;2023-02-23T07:40:10;59029.43;;;-148.94;100.00
46682;BME280;34101;53.430;-2.224;2023-02-23T07:42:37;59139.11;;;-148.94;100.00
46682;BME280;34101;53.430;-2.224;2023-02-23T07:45:06;59127.95;;;-148.94;100.00
46682;BME280;34101;53.430;-2.224;2023-02-23T07:47:34;59097.16;;;-148.94;100.00
46682;BME280;34101;53.430;-2.224;2023-02-23T07:50:02;59043.54;;;-148.94;100.00
46682;BME280;34101;53.430;-2.224;2023-02-23T07:52:30;59062.14;;;-148.94;100.00
46682;BME280;34101;53.430;-2.224;2023-02-23T07:54:57;58813.41;;;-148.94;100.00
46682;BME280;34101;53.430;-2.224;2023-02-23T07:57:25;58710.41;;;-148.94;100.00
46682;BME280;34101;53.430;-2.224;2023-02-23T07:59:52;58613.95;;;-148.94;100.00
46682;BME280;34101;53.430;-2.224;2023-02-23T08:02:20;58543.66;;;-148.94;100.00
46682;BME280;34101;53.430;-2.224;2023-02-23T08:04:47;58298.05;;;-148.94;100.00
46682;BME280;34101;53.430;-2.224;2023-02-23T08:07:15;58132.09;;;-148.94;100.00
46682;BME280;34101;53.430;-2.224;2023-02-23T08:09:42;57851.61;;;-148.94;100.00
46682;BME280;34101;53.430;-2.224;2023-02-23T08:12:10;57613.09;;;-148.94;100.00
46682;BME280;34101;53.430;-2.224;2023-02-23T08:14:37;57381.63;;;-148.94;100.00
46682;BME280;34101;53.430;-2.224;2023-02-23T08:17:04;57075.57;;;-148.94;100.00
46682;BME280;34101;53.430;-2.224;2023-02-23T08:19:32;56730.81;;;-148.94;100.00
46682;BME280;34101;53.430;-2.224;2023-02-23T08:21:59;56336.85;;;-148.94;100.00
46682;BME280;34101;53.430;-2.224;2023-02-23T08:24:27;55485.23;;;-148.94;100.00
46682;BME280;34101;53.430;-2.224;2023-02-23T08:26:54;54021.22;;;-148.94;100.00
46682;BME280;34101;53.430;-2.224;2023-02-23T08:29:22;52617.93;;;-148.94;100.00
46682;BME280;34101;53.430;-2.224;2023-02-23T08:31:49;50938.11;;;-148.94;100.00
46682;BME280;34101;53.430;-2.224;2023-02-23T08:34:17;49208.71;;;-148.94;100.00
46682;BME280;34101;53.430;-2.224;2023-02-23T08:36:44;47606.56;;;-148.94;100.00
46682;BME280;34101;53.430;-2.224;2023-02-23T08:39:12;45924.39;;;-148.94;100.00
46682;BME280;34101;53.430;-2.224;2023-02-23T08:41:39;45082.04;;;-148.94;100.00
46682;BME280;34101;53.430;-2.224;2023-02-23T08:44:07;43511.73;;;-148.94;100.00
46682;BME280;34101;53.430;-2.224;2023-02-23T08:46:34;42543.42;;;-148.94;100.00
46682;BME280;34101;53.430;-2.224;2023-02-23T08:49:01;42139.89;;;-148.94;100.00
46682;BME280;34101;53.430;-2.224;2023-02-23T08:51:29;41419.54;;;-148.94;100.00
46682;BME280;34101;53.430;-2.224;2023-02-23T08:53:56;40492.48;;;-148.94;100.00
46682;BME280;34101;53.430;-2.224;2023-02-23T08:56:23;39517.77;;;-148.94;100.00
46682;BME280;34101;53.430;-2.224;2023-02-23T08:58:51;38735.11;;;-148.94;100.00
46682;BME280;34101;53.430;-2.224;2023-02-23T09:01:20;38095.39;;;-148.94;100.00
46682;BME280;34101;53.430;-2.224;2023-02-23T09:03:47;37456.92;;;-148.94;96.72
46682;BME280;34101;53.430;-2.224;2023-02-23T09:06:16;36227.62;;;-148.94;94.87
46682;BME280;34101;53.430;-2.224;2023-02-23T09:08:43;35380.20;;;-148.94;94.58
46682;BME280;34101;53.430;-2.224;2023-02-23T09:11:11;35093.18;;;-148.94;91.44
46682;BME280;34101;53.430;-2.224;2023-02-23T09:13:38;34809.11;;;-148.94;83.60
46682;BME280;34101;53.430;-2.224;2023-02-23T09:16:06;35278.06;;;-148.94;84.77
46682;BME280;34101;53.430;-2.224;2023-02-23T09:18:34;33527.36;;;-148.94;83.82
46682;BME280;34101;53.430;-2.224;2023-02-23T09:21:03;32463.90;;;-148.94;70.64
46682;BME280;34101;53.430;-2.224;2023-02-23T09:23:31;31627.11;;;-148.94;58.97
46682;BME280;34101;53.430;-2.224;2023-02-23T09:26:02;30577.93;;;-148.94;49.29
46682;BME280;34101;53.430;-2.224;2023-02-23T09:28:30;30876.46;;;-148.94;45.28
46682;BME280;34101;53.430;-2.224;2023-02-23T09:30:58;30257.89;;;-148.94;44.36
46682;BME280;34101;53.430;-2.224;2023-02-23T09:33:26;30973.26;;;-148.94;43.87
46682;BME280;34101;53.430;-2.224;2023-02-23T09:35:53;30467.25;;;-148.94;44.38
46682;BME280;34101;53.430;-2.224;2023-02-23T09:38:21;30786.54;;;-148.94;43.07
46682;BME280;34101;53.430;-2.224;2023-02-23T09:40:50;30267.19;;;-148.94;43.90
46682;BME280;34101;53.430;-2.224;2023-02-23T09:43:22;29546.72;;;-148.94;42.54
46682;BME280;34101;53.430;-2.224;2023-02-23T09:45:57;29013.14;;;-148.94;41.80
46682;BME280;34101;53.430;-2.224;2023-02-23T09:48:27;28639.90;;;-148.94;41.12
46682;BME280;34101;53.430;-2.224;2023-02-23T09:50:56;28500.39;;;-148.94;42.31
46682;BME280;34101;53.430;-2.224;2023-02-23T09:53:29;27870.23;;;-148.94;40.94
46682;BME280;34101;53.430;-2.224;2023-02-23T09:55:59;27289.80;;;-148.94;39.99
46682;BME280;34101;53.430;-2.224;2023-02-23T09:58:28;26799.28;;;-148.94;38.84
46682;BME280;34101;53.430;-2.224;2023-02-23T10:01:13;26167.86;;;-148.94;38.45
46682;BME280;34101;53.430;-2.224;2023-02-23T10:03:51;25182.97;;;-148.94;37.79
46682;BME280;34101;53.430;-2.224;2023-02-23T10:06:20;24348.88;;;-148.94;37.77
46682;BME280;34101;53.430;-2.224;2023-02-23T10:08:57;24823.06;;;-148.94;35.88
46682;BME280;34101;53.430;-2.224;2023-02-23T10:11:35;24809.20;;;-148.94;36.52
46682;BME280;34101;53.430;-2.224;2023-02-23T10:14:20;26294.57;;;-148.94;36.55
46682;BME280;34101;53.430;-2.224;2023-02-23T10:16:59;27062.53;;;-148.94;36.19
46682;BME280;34101;53.430;-2.224;2023-02-23T10:19:38;26650.80;;;-148.94;35.91
46682;BME280;34101;53.430;-2.224;2023-02-23T10:22:08;26466.32;;;-148.94;36.29
46682;BME280;34101;53.430;-2.224;2023-02-23T10:24:39;26893.69;;;-148.94;36.10
46682;BME280;34101;53.430;-2.224;2023-02-23T10:27:12;27126.54;;;-148.94;36.05
46682;BME280;34101;53.430;-2.224;2023-02-23T10:29:45;26401.31;;;-148.94;37.06
46682;BME280;34101;53.430;-2.224;2023-02-23T10:32:20;25719.46;;;-148.94;35.96
46682;BME280;34101;53.430;-2.224;2023-02-23T10:34:51;24140.09;;;-148.94;35.85
46682;BME280;34101;53.430;-2.224;2023-02-23T10:37:20;23222.58;;;-148.94;33.97
46682;BME280;34101;53.430;-2.224;2023-02-23T10:39:47;24492.82;;;-148.94;34.87
46682;BME280;34101;53.430;-2.224;2023-02-23T10:42:20;24221.98;;;-148.94;35.47
46682;BME280;34101;53.430;-2.224;2023-02-23T10:44:49;22786.84;;;-148.94;34.62
46682;BME280;34101;53.430;-2.224;2023-02-23T10:47:19;22222.80;;;-148.94;33.97
46682;BME280;34101;53.430;-2.224;2023-02-23T10:49:49;21364.43;;;-148.94;33.32
46682;BME280;34101;53.430;-2.224;2023-02-23T10:52:20;20634.94;;;-148.94;33.08
46682;BME280;34101;53.430;-2.224;2023-02-23T10:54:49;20189.33;;;-148.94;32.59
46682;BME280;34101;53.430;-2.224;2023-02-23T10:57:23;19702.50;;;-148.94;32.28
46682;BME280;34101;53.430;-2.224;2023-02-23T11:00:17;19336.49;;;-148.94;32.01
46682;BME280;34101;53.430;-2.224;2023-02-23T11:02:48;19561.53;;;-148.94;32.28
46682;BME280;34101;53.430;-2.224;2023-02-23T11:05:30;19242.52;;;-148.94;32.37
46682;BME280;34101;53.430;-2.224;2023-02-23T11:08:32;19176.99;;;-148.94;31.28
46682;BME280;34101;53.430;-2.224;2023-02-23T11:11:03;19849.57;;;-148.94;31.82
46682;BME280;34101;53.430;-2.224;2023-02-23T11:13:36;19158.45;;;-148.94;31.68
46682;BME280;34101;53.430;-2.224;2023-02-23T11:16:07;18867.67;;;-148.94;31.70
46682;BME280;34101;53.430;-2.224;2023-02-23T11:18:38;18530.82;;;-148.94;31.37
46682;BME280;34101;53.430;-2.224;2023-02-23T11:21:10;19138.77;;;-148.94;31.18
46682;BME280;34101;53.430;-2.224;2023-02-23T11:23:39;18764.57;;;-148.94;31.48
46682;BME280;34101;53.430;-2.224;2023-02-23T11:26:21;18632.14;;;-148.94;31.12
46682;BME280;34101;53.430;-2.224;2023-02-23T11:28:52;18785.90;;;-148.94;31.65
46682;BME280;34101;53.430;-2.224;2023-02-23T11:31:25;18691.30;;;-148.94;31.06
46682;BME280;34101;53.430;-2.224;2023-02-23T11:33:55;19923.74;;;-148.94;30.66
46682;BME280;34101;53.430;-2.224;2023-02-23T11:36:27;21528.08;;;-148.94;31.59
46682;BME280;34101;53.430;-2.224;2023-02-23T11:39:04;22638.52;;;-148.94;32.38
46682;BME280;34101;53.430;-2.224;2023-02-23T11:41:33;22517.52;;;-148.94;32.52
46682;BME280;34101;53.430;-2.224;2023-02-23T11:44:02;22545.35;;;-148.94;32.26
46682;BME280;34101;53.430;-2.224;2023-02-23T11:46:32;24174.17;;;-148.94;31.96
46682;BME280;34101;53.430;-2.224;2023-02-23T11:49:03;24289.88;;;-148.94;32.30
46682;BME280;34101;53.430;-2.224;2023-02-23T11:51:34;23714.17;;;-148.94;32.55
46682;BME280;34101;53.430;-2.224;2023-02-23T11:54:03;23007.63;;;-148.94;32.75
46682;BME280;34101;53.430;-2.224;2023-02-23T11:56:33;22853.95;;;-148.94;31.90
46682;BME280;34101;53.430;-2.224;2023-02-23T11:59:03;22957.29;;;-148.94;32.40
46682;BME280;34101;53.430;-2.224;2023-02-23T12:01:39;22773.12;;;-148.94;32.09
46682;BME280;34101;53.430;-2.224;2023-02-23T12:04:07;23741.76;;;-148.94;32.25
46682;BME280;34101;53.430;-2.224;2023-02-23T12:06:37;23697.39;;;-148.94;32.34
46682;BME280;34101;53.430;-2.224;2023-02-23T12:09:12;24665.00;;;-148.94;32.57
46682;BME280;34101;53.430;-2.224;2023-02-23T12:11:48;24743.33;;;-148.94;33.63
46682;BME280;34101;53.430;-2.224;2023-02-23T12:14:24;25837.25;;;-148.94;33.27
46682;BME280;34101;53.430;-2.224;2023-02-23T12:16:55;27767.90;;;-148.94;34.27
46682;BME280;34101;53.430;-2.224;2023-02-23T12:19:28;27317.28;;;-148.94;34.34
46682;BME280;34101;53.430;-2.224;2023-02-23T12:22:02;27092.05;;;-148.94;34.00
46682;BME280;34101;53.430;-2.224;2023-02-23T12:24:39;26514.15;;;-148.94;33.73
46682;BME280;34101;53.430;-2.224;2023-02-23T12:27:12;25925.91;;;-148.94;33.26
46682;BME280;34101;53.430;-2.224;2023-02-23T12:29:57;25636.53;;;-148.94;33.65
46682;BME280;34101;53.430;-2.224;2023-02-23T12:32:31;24999.45;;;-148.94;33.38
46682;BME280;34101;53.430;-2.224;2023-02-23T12:35:02;25015.60;;;-148.94;32.89
46682;BME280;34101;53.430;-2.224;2023-02-23T12:37:38;24956.85;;;-148.94;33.10
46682;BME280;34101;53.430;-2.224;2023-02-23T12:40:15;26333.75;;;-148.94;33.32
46682;BME280;34101;53.430;-2.224;2023-02-23T12:42:51;27722.22;;;-148.94;33.65